Meath Environmental Platform

Observations for Trim Market St

Time AQI Temp °C Hum % Pres Pa CO μg/m³ H₂S μg/m³ NO μg/m³ NO₂ μg/m³ O₃ μg/m³ SO₂ μg/m³ PM1 μg/m³ PM2.5 μg/m³ PM10 μg/m³
Friday 10 July 2026
15:26 1 40.9 27 67,066 0 0 0 0 0 6.51 4.28 6.74 7.41
15:25 1 40.9 27 67,068 0 6.15 0 13.19 14.84 5.03 4.28 7.27 7.52
15:23 1 40.9 27 67,065 0 0 0 5.47 27.96 5.71 2.14 5.08 5.58
15:20 1 40.9 27 67,112 0 0 0 0 29.21 7.31 2.14 5.63 5.76
15:18 1 40.9 27 67,104 0 3.68 0 0.47 28.95 7.35 2.14 6.17 6.79
15:15 1 40.9 27 67,128 0 4.14 0 7.3 25.71 6.08 1.43 4.54 5
15:08 1 41 27 67,118 0 8.59 0 7.57 25.77 6.18 2.14 5.64 5.76
15:07 1 41 27 67,100 0 2.85 0 9.28 29.51 5.41 1.43 5.09 5.6
15:06 1 41 27 67,108 0 6.9 0 1.77 24.72 6.99 2.14 5.09 5.6
15:05 1 41 27 67,116 0 3.07 0 4.4 24.38 6.72 2.14 5.65 6.21
15:04 1 41 27 67,126 0 4.56 0 4.3 31.05 6.91 1.43 5.1 5.61
15:03 1 41 26 67,139 0 3.09 0 0 27.96 7.75 1.43 4.56 5.01
15:02 1 41.1 26 67,159 0 7.62 0 1.58 29.23 7.53 0.71 4.56 5.01
15:01 1 41.1 27 67,153 0 0 0 0.57 31.94 7.23 2.14 5.1 5.61
15:00 1 41.2 26 67,145 0 6.03 0 2.85 33.09 7.43 2.14 5.1 5.61
14:59 1 41.2 27 67,132 0 0 0 0 28.78 8.07 1.43 5.09 5.6
14:58 1 41.2 27 67,145 0 5.43 0 0.44 24.18 7.79 0.71 4.55 5.01
14:57 1 41.2 27 67,163 0 3.28 0 0 30.96 8.06 1.43 5.65 5.75
14:56 1 41.2 27 67,185 0 9.78 0 1.93 43.69 7.87 1.43 5.09 5.6
14:55 1 41.2 26 67,212 0 11.01 0 3.26 40.82 7.43 1.43 4.56 5.02